Panagiotis Giakoumakis

Ojeador - Panathinaikos
4 Dic 2028
Lunes
Continuar

Personalidad

Adaptabilidad (12) Ambición (10) Controversia (3) Lealtad (18) Presión (1) Profesionalismo (20) Deportividad (19) Temperamento (17)

Perfil

Estilo de dirección Democrático
Licencia Continental C
Determinación 12
Gestión de personas 13
Motivación 13
Disciplina 12
Satisfacción laboral
100%
Fatiga
0%
Cargo Ojeador
Salario 51.4K p/s
Contrato 14.03.2029

Rendimiento

Comportamiento Bueno
Efectividad del entrenamiento
45%
Desarrollo de jugadores
40%
Prevención de lesiones
60%
Implementación táctica
35%

Eventos recientes

Asistió a una reunión de captación ahora
Recomendó un objetivo de fichaje ahora
Asistió a una reunión de captación 7d atrás
Recomendó un objetivo de fichaje 7d atrás
Recomendó un objetivo de fichaje 7d atrás
Observó un partido 7d atrás
Observó un partido 14d atrás
Evaluó a un jugador 14d atrás

Actualmente siguiendo

149
Jugador Club Estado Habilidad Confianza Observado Última observación Último voto
Joel Ezra Enyimba Activo 93 / 104 40% 7 19.11.2028 -
Álvaro Montoro Botafogo Activo 140 / 136 40% 2 19.11.2028 -
Tahiel Peralta Racing Club Activo 112 / 117 40% 1 19.11.2028 -
Ayyoub Bouaddi Stoke City Activo 151 / 153 40% 2 16.11.2028 -
Franco Mastantuono Córdoba Activo 152 / 153 40% 1 16.11.2028 -
Santiago Segovia Rosario Central Activo 110 / 118 40% 3 14.11.2028 -
Lionel Jara Central Córdoba SdE Activo 100 / 102 40% 3 14.11.2028 -
Peyton Miller New England Revolution Activo 120 / 121 40% 1 14.11.2028 -
Lisandro Piñero Banfield Activo 126 / 129 40% 2 12.11.2028 -
Valentino Huertas Morón Activo 108 / 110 40% 1 08.11.2028 -
Martín Jiménez Iquique Activo 105 / 110 40% 3 15.10.2028 -
Nadir Sánchez Central Córdoba SdE Activo 101 / 109 40% 2 15.10.2028 -
Honest Ahanor Atalanta Activo 138 / 145 40% 3 14.10.2028 -
Alex Verón Vélez Activo 116 / 124 40% 5 13.10.2028 -
Dieguinho Grêmio Activo 120 / 124 40% 2 12.10.2028 -
Babis Kostoulas Oxford United Activo 150 / 154 40% 3 10.10.2028 -
Julian Hall Real Salt Lake Activo 116 / 123 40% 1 10.10.2028 -
Luka Andrade Montevideo City Torque Activo 102 / 108 40% 4 04.10.2028 -
Gustavo Lozano Metropolitanos Activo 102 / 103 40% 1 04.10.2028 -
Julián Bartolo Asteras Activo 120 / 118 83% 1 03.06.2028 Aprobar
Shea Charles Southampton Activo 152 / 148 40% 4 01.06.2028 -
Yussif Saidu Zaragoza Activo 126 / 130 40% 1 01.06.2028 -
Andrey Santos Bolton Wanderers Activo 145 / 143 40% 1 01.06.2028 -
Callum O'Hare Sheffield United Activo 137 / 132 40% 1 31.05.2028 -
Patson Daka Leicester City Activo 127 / 131 40% 1 31.05.2028 -
Borja Mayoral Getafe Activo 142 / 145 40% 1 31.12.2027 -
Lucas Villalba Botafogo Activo 133 / 126 40% 1 31.12.2027 -
Dejan Joveljić Seattle Sounders Activo 129 / 127 40% 1 31.12.2027 -
Josh Acheampong Everton Activo 147 / 146 40% 2 28.12.2027 -
Luighi Palmeiras Activo 116 / 118 40% 2 28.12.2027 -
Luca Meirelles Kudrivka Activo 129 / 125 40% 1 27.12.2027 -
Rafael Moreno Atletico Venezuela Activo 106 / 116 40% 4 22.12.2027 -
Pedro Baltika Activo 136 / 141 40% 4 22.12.2027 -
Christ Wawa Gefle Activo 99 / 106 40% 2 20.12.2027 -
Jeremías Merlo Gimnasia La Plata Activo 127 / 127 40% 6 19.12.2027 -
Ibrahim Fullah Charlton Athletic Activo 118 / 133 40% 1 13.12.2027 -
Victor Hernandez Santa Fe Activo 123 / 123 40% 7 08.12.2027 -
Matías Arias Vélez Activo 114 / 118 40% 3 08.12.2027 -
Héctor Fort Real Sociedad Activo 140 / 141 40% 1 08.12.2027 -
Ruben Ramos LA Galaxy Activo 106 / 113 40% 2 07.12.2027 -
Matias Siltanen Malmo FF Activo 127 / 128 40% 6 30.11.2027 -
Juan Rodríguez Cerro Largo Activo 95 / 105 40% 8 29.11.2027 -
Maren Kefas Plateau United Activo 100 / 101 40% 9 26.11.2027 -
Mateo Silvetti Seattle Sounders Activo 129 / 130 40% 4 23.11.2027 -
Eli Junior Kroupi Bournemouth Activo 141 / 148 40% 1 19.11.2027 -
Adrian Skogmar Malmo FF Activo 114 / 118 40% 3 16.11.2027 -
Albert Aleksanjan IFK Norrkoping Activo 103 / 105 40% 2 13.11.2027 -
Giovanni Baroni Talleres Activo 107 / 118 40% 2 11.11.2027 -
Mfundo Vilakazi Free State Stars Activo 124 / 130 40% 1 10.11.2027 -
Ben Gannon Doak Charlton Athletic Activo 156 / 148 40% 6 03.11.2027 -
Rémi Himbert AC Ajaccio Activo 108 / 123 40% 1 29.10.2027 -
Dylan Cabral Arsenal Activo 96 / 103 40% 3 28.10.2027 -
Tomás Aranda Boca Juniors Activo 110 / 125 40% 1 27.10.2027 -
Piero Cari Alianza Lima Activo 97 / 103 40% 1 25.10.2027 -
Valentino Acuña Newell's Old Boys Activo 112 / 117 40% 3 17.10.2027 -
Nicolás Barros Schelotto Gimnasia La Plata Activo 116 / 129 40% 1 17.10.2027 -
Abdoul Ouattara Port Vale Activo 139 / 136 40% 1 15.10.2027 -
Abubakar Garba Nasarawa United Activo 87 / 97 40% 3 12.10.2027 -
Francisco Marchant Colo-Colo Activo 94 / 101 40% 3 04.10.2027 -
Didier Dawson Envigado Activo 105 / 111 40% 1 03.10.2027 -
Gabriel Lopes San Marcos de Arica Activo 99 / 104 40% 1 30.09.2027 -
Mateo Peralta Danubio Activo 117 / 115 40% 1 30.09.2027 -
Alejandro Leiva Patronato Activo 98 / 104 40% 2 12.09.2027 -
Tiago Pucciarelli IF Elfsborg Activo 95 / 103 40% 1 09.09.2027 -
Iñaki Peña Urawa Reds Perdido 155 / 141 40% 1 16.08.2027 -
Diego Romero Universitario Activo 130 / 125 40% 1 16.08.2027 -
Elia Caprile Cagliari Activo 144 / 149 40% 1 20.07.2027 -
Patrick Sequeira Casa Pia Activo 127 / 128 40% 1 12.07.2027 -
James Trafford Leeds United Activo 146 / 153 40% 1 12.07.2027 -
Anthony Patterson Wrexham Activo 131 / 139 40% 1 05.07.2027 -
Dale Taylor Blackpool Activo 115 / 111 40% 1 29.06.2027 -
Lazaros Lamprou Volos NPS Perdido 125 / 118 79% 1 28.06.2027 -
Mohammad Hosseini Malavan Activo 119 / 121 40% 1 28.06.2027 -
Marezi Portsmouth Activo 117 / 130 40% 1 28.06.2027 -
Bénie Traoré New York City Activo 131 / 132 40% 1 28.06.2027 -
Kazunari Kita Real Sociedad Activo 95 / 97 40% 4 30.05.2027 -
Tommaso Pobega Bologna Activo 133 / 146 40% 3 30.05.2027 -
Arthur Atta Fiorentina Activo 149 / 143 40% 2 30.05.2027 -
Enrico Delprato Parma Activo 145 / 131 40% 4 28.05.2027 -
Giorgi Chakvetadze Watford Activo 131 / 130 40% 1 28.05.2027 -
Charlie Gray Fleetwood Town Activo 94 / 92 40% 2 27.05.2027 -
Zane Albarus Shrewsbury Town Activo 88 / 100 40% 1 27.05.2027 -
Marco Brescianini Fiorentina Activo 147 / 133 40% 2 26.05.2027 -
Billy Gilmour Napoli Activo 143 / 149 40% 2 26.05.2027 -
Jack Rudoni Coventry City Activo 138 / 132 40% 2 25.05.2027 -
Jack Diamond Stockport County Activo 114 / 111 40% 1 25.05.2027 -
Ali Ahmed Norwich City Activo 125 / 117 40% 2 22.05.2027 -
Tyrese Campbell Sheffield United Activo 128 / 122 40% 2 22.05.2027 -
Jordan Beyer Burnley Activo 142 / 142 40% 4 20.05.2027 -
Oswin Appollis Orlando Pirates Activo 121 / 118 40% 2 18.05.2027 -
Samuel Edozie Southampton Activo 129 / 123 40% 1 18.05.2027 -
Max Bird Birmingham Activo 138 / 130 40% 1 14.05.2027 -
Jacques Ekomié Wrexham Activo 136 / 132 40% 1 14.05.2027 -
Rocco Vata Watford Activo 126 / 122 40% 1 14.05.2027 -
Jason Knight Bristol City Activo 138 / 131 40% 2 13.05.2027 -
Habib Diarra Sunderland Activo 137 / 141 40% 3 11.05.2027 -
Welington Southampton Activo 125 / 125 40% 2 11.05.2027 -
Tariq Lamptey Queens Park Rangers Activo 130 / 127 40% 1 11.05.2027 -
Richard Koné Queens Park Rangers Activo 130 / 128 40% 2 08.05.2027 -
Kwadwo Baah Watford Activo 120 / 124 40% 2 08.05.2027 -
Milan van Ewijk Coventry City Activo 138 / 136 40% 1 07.05.2027 -
Tomáš Suslov Hellas Verona Activo 134 / 137 40% 1 07.05.2027 -
Hans Nicolussi Caviglia Parma Activo 142 / 135 40% 1 06.05.2027 -
Caleb Yirenkyi Coventry City Activo 133 / 136 40% 1 06.05.2027 -
Joe Gelhardt Hull City Activo 137 / 137 40% 3 04.05.2027 -
Derensili Sanches Fernandes Huddersfield Town Activo 124 / 123 40% 1 03.05.2027 -
Bobby Clark Derby County Activo 119 / 123 40% 1 03.05.2027 -
Aidomo Emakhu Oxford United Activo 115 / 119 40% 1 03.05.2027 -
Isaiah Jones Luton Town Activo 121 / 124 40% 1 02.05.2027 -
Alex Robertson Cardiff City Activo 125 / 128 40% 1 01.05.2027 -
Juan Miranda Bologna Activo 140 / 133 40% 1 30.04.2027 -
Sam Bell Bristol City Activo 126 / 116 40% 1 29.04.2027 -
Toby Collyer West Bromwich Albion Activo 128 / 140 40% 1 28.04.2027 -
Sam Greenwood Bristol City Activo 117 / 118 40% 1 27.04.2027 -
Maldini Kacurri Grimsby Town Activo 100 / 93 40% 1 27.04.2027 -
Gonçalo Oliveira Benfica Activo 113 / 117 40% 2 26.04.2027 -
Jan Bürger Northampton Town Activo 106 / 112 40% 1 26.04.2027 -
Samuele di Benedetto Twente Activo 107 / 116 40% 1 26.04.2027 -
Tiago Freitas Benfica Activo 117 / 114 40% 2 24.04.2027 -
Oliver Skipp Leicester City Activo 136 / 127 40% 1 24.04.2027 -
Alexander Prass TSG Hoffenheim Activo 139 / 139 40% 1 23.04.2027 -
Olivier Leroux Mouscron Activo 88 / 98 40% 1 22.04.2027 -
Miguel Figueiredo Benfica Activo 114 / 112 40% 3 20.04.2027 -
Eliás Montiel Borussia Dortmund Activo 134 / 132 40% 1 20.04.2027 -
Enzo Koffi Olympique de Marseille Activo 104 / 108 40% 1 20.04.2027 -
Darlin Yongwa Norwich City Activo 129 / 130 40% 1 19.04.2027 -
Jacob Greaves Ipswich Town Activo 138 / 137 40% 1 17.04.2027 -
Gustavo Mantuan Zenit Activo 136 / 136 40% 3 16.04.2027 -
Marcelino Núñez Ipswich Town Activo 136 / 136 40% 1 13.04.2027 -
Vouria Azmoun Gostaresh Foulad Activo 101 / 103 40% 1 12.04.2027 -
Panagiotis Markou Doxa Activo 97 / 92 40% 2 09.04.2027 -
Ezra Mayers West Ham United Activo 119 / 129 40% 1 09.04.2027 -
Oumar Solet Udinese Activo 154 / 153 40% 1 07.04.2027 -
Jordan Zemura Udinese Activo 138 / 139 40% 3 06.04.2027 -
Lucas Da Cunha Como Activo 146 / 142 40% 1 05.04.2027 -
Adrián Bernabé Parma Activo 140 / 139 40% 1 05.04.2027 -
Florentino Luís Ipswich Town Activo 144 / 139 40% 2 04.04.2027 -
Mamadou Sangaré Brentford Activo 137 / 145 40% 1 04.04.2027 -
Lewis Ferguson Bologna Activo 136 / 146 40% 1 02.04.2027 -
Tommaso Cecotti Carpi Activo 90 / 90 40% 1 31.03.2027 -
Kiani Inge Groningen Activo 109 / 102 40% 1 29.03.2027 -
Cam Bragg West Ham United Activo 111 / 114 40% 1 26.03.2027 -
Jenson Jones Walsall Activo 93 / 104 40% 2 25.03.2027 -
Leandro Martins Benfica Activo 90 / 100 40% 1 25.03.2027 -
Samuele Diodato Lumezzane Activo 86 / 87 40% 1 24.03.2027 -
Sascha Britschgi AC Milan Activo 115 / 126 40% 1 23.03.2027 -
Amine Boukamir Charleroi Activo 98 / 108 40% 1 22.03.2027 -
Riley Owen Stevenage Activo 103 / 107 40% 1 20.03.2027 -
Ricardo Velho Aris Thessaloniki Activo 122 / 125 79% 1 25.01.2027 Aprobar